createdAt,value
2023-01-13T00:00:20.225Z,88.72
2023-01-13T00:05:46.990Z,88.63
2023-01-13T00:10:55.186Z,88.59
2023-01-13T00:16:05.040Z,88.79
2023-01-13T00:21:17.183Z,88.81
2023-01-13T00:26:27.783Z,89.09
2023-01-13T00:31:36.469Z,89.16
2023-01-13T00:36:43.067Z,89.24
2023-01-13T00:42:08.509Z,89.22
2023-01-13T00:47:15.086Z,89.56
2023-01-13T00:52:21.659Z,89.47
2023-01-13T00:57:29.633Z,89.37
2023-01-13T01:02:37.285Z,89.48
2023-01-13T01:07:44.315Z,89.34
2023-01-13T01:12:53.025Z,89.39
2023-01-13T01:17:59.405Z,89.58
2023-01-13T01:23:05.910Z,89.49
2023-01-13T01:28:13.711Z,89.96
2023-01-13T01:33:20.815Z,90.06
2023-01-13T01:38:27.885Z,90.24
2023-01-13T01:44:03.873Z,90.45
2023-01-13T01:49:17.740Z,90.68
2023-01-13T01:54:29.203Z,90.81
2023-01-13T01:59:40.024Z,90.82
2023-01-13T02:04:51.954Z,90.80
2023-01-13T02:10:03.107Z,90.77
2023-01-13T02:15:15.016Z,90.77
2023-01-13T02:21:04.180Z,90.76
2023-01-13T02:27:08.764Z,90.87
2023-01-13T02:32:27.798Z,90.96
2023-01-13T02:37:39.462Z,91.14
2023-01-13T02:43:12.251Z,91.21
2023-01-13T02:48:25.915Z,91.71
2023-01-13T02:53:37.798Z,91.83
2023-01-13T02:58:47.435Z,91.62
2023-01-13T03:03:55.125Z,91.88
2023-01-13T03:09:10.379Z,92.01
2023-01-13T03:14:35.103Z,91.90
2023-01-13T03:19:52.279Z,91.62
2023-01-13T03:25:08.818Z,91.74
2023-01-13T03:30:21.153Z,91.95
2023-01-13T03:35:34.369Z,92.43
2023-01-13T03:40:46.069Z,92.31
2023-01-13T03:45:58.265Z,92.33
2023-01-13T03:51:13.322Z,92.60
2023-01-13T03:56:27.509Z,92.37
2023-01-13T04:01:44.158Z,92.67
2023-01-13T04:06:58.121Z,92.77
2023-01-13T04:12:13.949Z,93.10
2023-01-13T04:17:21.280Z,93.04
2023-01-13T04:22:29.137Z,92.87
2023-01-13T04:27:37.016Z,92.84
2023-01-13T04:32:43.341Z,92.82
2023-01-13T04:37:51.249Z,92.96
2023-01-13T04:42:58.168Z,93.26
2023-01-13T04:48:05.565Z,93.11
2023-01-13T04:53:13.697Z,93.45
2023-01-13T04:58:20.046Z,93.39
2023-01-13T05:03:27.121Z,93.74
2023-01-13T05:08:35.222Z,93.47
2023-01-13T05:14:10.106Z,93.60
2023-01-13T05:19:16.355Z,93.58
2023-01-13T05:24:41.390Z,93.90
2023-01-13T05:29:50.498Z,93.88
2023-01-13T05:34:57.332Z,93.72
2023-01-13T05:40:23.496Z,93.77
2023-01-13T05:45:32.145Z,93.68
2023-01-13T05:50:38.648Z,93.73
2023-01-13T05:55:47.311Z,93.70
2023-01-13T06:00:54.760Z,94.19
2023-01-13T06:06:04.517Z,94.22
2023-01-13T06:11:12.976Z,94.07
2023-01-13T06:16:19.734Z,94.04
2023-01-13T06:21:26.393Z,93.93
2023-01-13T06:26:39.034Z,94.30
2023-01-13T06:31:45.985Z,94.06
2023-01-13T06:36:57.141Z,94.24
2023-01-13T06:42:23.752Z,94.38
2023-01-13T06:47:30.255Z,94.39
2023-01-13T06:52:36.481Z,94.51
2023-01-13T06:57:53.797Z,94.50
2023-01-13T07:03:12.569Z,94.56
2023-01-13T07:08:19.085Z,94.58
2023-01-13T07:13:44.328Z,94.60
2023-01-13T07:18:53.685Z,94.54
2023-01-13T07:24:00.457Z,94.53
2023-01-13T07:29:08.697Z,94.43
2023-01-13T07:34:15.453Z,94.63
2023-01-13T07:39:22.019Z,94.28
2023-01-13T07:44:30.063Z,94.29
2023-01-13T07:49:36.272Z,94.40
2023-01-13T07:54:42.617Z,94.77
2023-01-13T07:59:50.372Z,94.74
2023-01-13T08:04:56.738Z,94.96
2023-01-13T08:10:03.314Z,95.08
2023-01-13T08:15:13.053Z,95.10
2023-01-13T08:20:19.625Z,95.07
2023-01-13T08:25:26.666Z,95.18
2023-01-13T08:30:34.820Z,95.22
2023-01-13T08:35:42.485Z,95.10
2023-01-13T08:40:49.114Z,95.11
2023-01-13T08:46:05.002Z,95.58
2023-01-13T08:51:13.042Z,95.40
2023-01-13T08:56:19.734Z,95.44
2023-01-13T09:01:28.424Z,95.59
2023-01-13T09:06:35.191Z,95.52
2023-01-13T09:12:02.406Z,95.41
2023-01-13T09:17:10.615Z,95.71
2023-01-13T09:22:19.611Z,95.86
2023-01-13T09:27:25.818Z,95.75
2023-01-13T09:32:33.586Z,95.78
2023-01-13T09:37:42.898Z,95.75
2023-01-13T09:43:13.534Z,95.92
2023-01-13T09:48:28.563Z,95.65
2023-01-13T09:53:49.800Z,95.75
2023-01-13T09:58:56.375Z,95.59
2023-01-13T10:04:11.836Z,95.72
2023-01-13T10:09:24.591Z,95.30
2023-01-13T10:14:43.023Z,95.25
2023-01-13T10:19:58.278Z,95.38
2023-01-13T10:25:22.407Z,95.07
2023-01-13T10:30:37.996Z,95.20
2023-01-13T10:35:56.856Z,95.39
2023-01-13T10:41:07.839Z,95.63
2023-01-13T10:46:17.062Z,95.58
2023-01-13T10:51:27.816Z,95.58
2023-01-13T10:56:35.880Z,95.84
2023-01-13T11:01:45.385Z,95.70
2023-01-13T11:06:53.352Z,95.88
2023-01-13T11:12:00.856Z,95.67
2023-01-13T11:17:40.877Z,95.64
2023-01-13T11:22:51.676Z,95.64
2023-01-13T11:28:04.913Z,95.75
2023-01-13T11:33:33.856Z,95.80
2023-01-13T11:38:49.710Z,95.76
2023-01-13T11:44:05.876Z,95.79
2023-01-13T11:49:22.333Z,95.86
2023-01-13T11:54:52.663Z,95.85
2023-01-13T12:00:24.931Z,95.66
2023-01-13T12:05:38.472Z,95.51
2023-01-13T12:11:03.694Z,95.76
2023-01-13T12:16:24.972Z,95.55
2023-01-13T12:21:35.561Z,95.79
2023-01-13T12:26:50.630Z,95.37
2023-01-13T12:31:57.384Z,95.68
2023-01-13T12:37:13.842Z,95.61
2023-01-13T12:42:46.628Z,95.20
2023-01-13T12:47:53.182Z,95.09
2023-01-13T12:53:01.246Z,94.62
2023-01-13T12:58:30.220Z,94.37
2023-01-13T13:03:39.258Z,94.34
2023-01-13T13:09:05.945Z,93.62
2023-01-13T13:14:39.873Z,93.67
2023-01-13T13:19:49.746Z,93.72
2023-01-13T13:25:26.777Z,93.60
2023-01-13T13:30:40.474Z,93.72
2023-01-13T13:36:15.561Z,93.63
2023-01-13T13:41:42.461Z,93.59
2023-01-13T13:46:51.128Z,93.54
2023-01-13T13:52:05.254Z,93.59
2023-01-13T13:57:21.859Z,93.86
2023-01-13T14:02:33.455Z,93.69
2023-01-13T14:07:51.241Z,93.51
2023-01-13T14:12:58.160Z,93.52
2023-01-13T14:18:14.061Z,93.35
2023-01-13T14:23:28.208Z,93.25
2023-01-13T14:28:39.729Z,93.21
2023-01-13T14:33:50.636Z,93.28
2023-01-13T14:39:35.572Z,93.50
2023-01-13T14:44:47.403Z,93.33
2023-01-13T14:50:03.285Z,93.44
2023-01-13T14:55:30.053Z,93.64
2023-01-13T15:00:36.923Z,93.62
2023-01-13T15:05:49.732Z,93.82
2023-01-13T15:11:01.228Z,93.51
2023-01-13T15:16:16.490Z,93.55
2023-01-13T15:21:25.367Z,93.73
2023-01-13T15:26:35.290Z,93.61
2023-01-13T15:31:41.844Z,93.56
2023-01-13T15:36:49.944Z,93.64
2023-01-13T15:42:21.993Z,93.85
2023-01-13T15:47:29.917Z,93.96
2023-01-13T15:52:37.980Z,93.80
2023-01-13T15:57:50.375Z,94.03
2023-01-13T16:02:56.945Z,93.78
2023-01-13T16:08:06.177Z,93.82
2023-01-13T16:13:12.684Z,93.87
2023-01-13T16:18:24.580Z,93.87
2023-01-13T16:23:34.141Z,93.49
2023-01-13T16:28:41.082Z,93.99
2023-01-13T16:33:47.759Z,93.86
2023-01-13T16:38:56.552Z,93.67
2023-01-13T16:44:06.335Z,93.94
2023-01-13T16:49:18.987Z,93.56
2023-01-13T16:54:27.150Z,93.76
2023-01-13T16:59:33.677Z,93.77
2023-01-13T17:04:40.440Z,93.97
2023-01-13T17:09:48.688Z,94.12
2023-01-13T17:14:55.795Z,94.16
2023-01-13T17:20:02.570Z,94.34
2023-01-13T17:25:14.381Z,94.38
2023-01-13T17:30:21.791Z,94.29
2023-01-13T17:35:30.262Z,94.33
2023-01-13T17:40:42.742Z,94.58
2023-01-13T17:45:51.147Z,94.28
2023-01-13T17:50:59.935Z,94.37
2023-01-13T17:56:15.647Z,94.34
2023-01-13T18:01:27.141Z,94.20
2023-01-13T18:06:37.217Z,94.32
2023-01-13T18:11:49.102Z,94.04
2023-01-13T18:16:57.329Z,94.17
2023-01-13T18:22:23.346Z,94.39
2023-01-13T18:27:35.474Z,94.10
2023-01-13T18:32:44.707Z,94.03
2023-01-13T18:37:53.762Z,93.96
2023-01-13T18:43:02.696Z,93.77
2023-01-13T18:48:11.286Z,93.50
2023-01-13T18:53:18.573Z,93.36
2023-01-13T18:58:31.198Z,93.38
2023-01-13T19:03:39.269Z,93.33
2023-01-13T19:08:48.914Z,93.26
2023-01-13T19:13:58.480Z,93.02
2023-01-13T19:19:07.024Z,93.26
2023-01-13T19:24:15.511Z,93.11
2023-01-13T19:29:24.486Z,93.07
2023-01-13T19:34:32.466Z,93.21
2023-01-13T19:39:42.261Z,93.40
2023-01-13T19:45:09.460Z,93.46
2023-01-13T19:50:17.664Z,93.15
2023-01-13T19:55:25.485Z,92.74
2023-01-13T20:00:37.384Z,92.58
2023-01-13T20:05:45.915Z,92.31
2023-01-13T20:11:15.824Z,92.12
2023-01-13T20:16:27.191Z,91.94
2023-01-13T20:21:38.403Z,91.83
2023-01-13T20:26:55.174Z,91.80
2023-01-13T20:32:04.860Z,91.55
2023-01-13T20:37:13.389Z,91.33
2023-01-13T20:42:43.452Z,91.06
2023-01-13T20:48:00.568Z,91.14
2023-01-13T20:53:08.521Z,91.05
2023-01-13T20:58:16.052Z,91.08
2023-01-13T21:03:25.881Z,90.68
2023-01-13T21:08:33.909Z,90.83
2023-01-13T21:13:58.036Z,90.61
2023-01-13T21:19:10.929Z,90.74
2023-01-13T21:24:19.232Z,90.66
2023-01-13T21:29:27.145Z,90.51
2023-01-13T21:34:36.210Z,90.83
2023-01-13T21:39:43.692Z,90.61
2023-01-13T21:45:08.022Z,90.40
2023-01-13T21:50:18.108Z,90.59
2023-01-13T21:55:28.872Z,90.26
2023-01-13T22:00:36.080Z,90.52
2023-01-13T22:05:44.619Z,90.29
2023-01-13T22:10:58.709Z,90.02
2023-01-13T22:16:06.800Z,90.01
2023-01-13T22:21:15.481Z,90.03
2023-01-13T22:26:22.540Z,90.21
2023-01-13T22:31:31.850Z,89.79
2023-01-13T22:36:40.775Z,89.95
2023-01-13T22:41:47.767Z,89.97
2023-01-13T22:46:54.927Z,89.92
2023-01-13T22:52:03.597Z,89.71
2023-01-13T22:57:10.543Z,90.06
2023-01-13T23:02:17.355Z,89.71
2023-01-13T23:07:25.939Z,89.88
2023-01-13T23:12:32.849Z,89.88
2023-01-13T23:17:40.793Z,89.82
2023-01-13T23:22:50.759Z,89.76
2023-01-13T23:27:57.757Z,89.74
2023-01-13T23:33:05.904Z,89.68
2023-01-13T23:38:14.409Z,89.67
2023-01-13T23:43:22.583Z,89.50
2023-01-13T23:48:29.599Z,89.51
2023-01-13T23:53:40.354Z,88.95
2023-01-13T23:58:47.999Z,89.10
